Time;durP1;ratioP1;P1;durP2;ratioP2;P2;SDS_P1;SDS_P2;PMS_P1;PMS_P2;Temp;Humidity;BMP_temperature;BMP_pressure;BME280_temperature;BME280_humidity;BME280_pressure;Samples;Min_cycle;Max_cycle;Signal;HPM_P1;HPM_P2
2022/08/03 00:01:36;;;;;;;9.30;2.42;;;19.90;99.90;;;;;;4938069;28;20050;-87
2022/08/03 00:04:03;;;;;;;10.88;2.60;;;19.90;99.90;;;;;;4937262;28;20054;-88
2022/08/03 00:06:29;;;;;;;11.48;2.63;;;19.90;99.90;;;;;;4952242;28;20046;-87
2022/08/03 00:08:55;;;;;;;8.70;2.10;;;19.90;99.90;;;;;;4937607;28;20544;-87
2022/08/03 00:11:21;;;;;;;8.50;2.30;;;19.90;99.90;;;;;;4938195;28;20154;-87
2022/08/03 00:13:47;;;;;;;10.50;2.20;;;19.90;99.90;;;;;;4936530;28;20134;-87
2022/08/03 00:16:13;;;;;;;9.68;2.80;;;19.90;99.90;;;;;;4951189;28;20488;-86
2022/08/03 00:18:39;;;;;;;9.45;2.40;;;19.90;99.90;;;;;;4939262;28;20511;-87
2022/08/03 00:21:05;;;;;;;11.35;2.53;;;19.90;99.90;;;;;;4953903;28;20495;-86
2022/08/03 00:23:32;;;;;;;9.48;2.30;;;19.80;99.90;;;;;;4934850;28;20039;-87
2022/08/03 00:25:58;;;;;;;10.43;2.30;;;19.80;99.90;;;;;;4937917;28;20358;-87
2022/08/03 00:28:24;;;;;;;9.65;2.70;;;19.80;99.90;;;;;;4935159;28;20508;-87
2022/08/03 00:30:50;;;;;;;10.30;2.72;;;19.80;99.90;;;;;;4951028;28;20586;-86
2022/08/03 00:33:16;;;;;;;12.07;3.00;;;19.80;99.90;;;;;;4937438;28;20046;-87
2022/08/03 00:35:42;;;;;;;10.13;2.75;;;19.80;99.90;;;;;;4954376;28;20047;-85
2022/08/03 00:38:08;;;;;;;10.43;3.00;;;19.70;99.90;;;;;;4932802;28;20066;-87
2022/08/03 00:40:34;;;;;;;12.32;2.95;;;19.70;99.90;;;;;;4966183;28;20043;-86
2022/08/03 00:43:03;;;;;;;9.25;2.50;;;19.70;99.90;;;;;;4927271;28;20042;-86
2022/08/03 00:45:31;;;;;;;8.63;2.65;;;19.70;99.90;;;;;;4968737;28;20042;-86
2022/08/03 00:47:58;;;;;;;12.25;2.80;;;19.70;99.90;;;;;;4951175;28;20034;-86
2022/08/03 00:50:25;;;;;;;10.52;2.75;;;19.60;99.90;;;;;;4937300;28;20053;-86
2022/08/03 00:52:53;;;;;;;10.00;2.72;;;19.60;99.90;;;;;;4936944;28;20077;-86
2022/08/03 00:55:19;;;;;;;8.85;2.28;;;19.60;99.90;;;;;;4933777;29;20039;-86
2022/08/03 00:57:46;;;;;;;9.23;2.50;;;19.60;99.90;;;;;;4943452;28;20039;-86
2022/08/03 01:00:14;;;;;;;13.23;2.80;;;19.50;99.90;;;;;;4952007;28;20058;-86
2022/08/03 01:02:40;;;;;;;11.43;2.70;;;19.50;99.90;;;;;;4967956;28;20043;-87
2022/08/03 01:05:07;;;;;;;9.23;2.60;;;19.60;99.90;;;;;;4933674;28;20096;-86
2022/08/03 01:08:00;;;;;;;8.90;2.35;;;19.50;99.90;;;;;;4937142;28;20173;-87
2022/08/03 01:10:44;;;;;;;9.25;2.50;;;19.50;99.90;;;;;;4951252;28;20053;-87
2022/08/03 01:13:34;;;;;;;9.30;2.30;;;19.50;99.90;;;;;;4952780;28;20051;-86
2022/08/03 01:16:36;;;;;;;10.80;2.40;;;19.40;99.90;;;;;;4953000;28;20098;-87
2022/08/03 01:19:23;;;;;;;12.27;2.40;;;19.40;99.90;;;;;;4961466;28;20047;-86
2022/08/03 01:22:22;;;;;;;8.68;2.30;;;19.40;99.90;;;;;;4949710;28;20049;-86
2022/08/03 01:25:11;;;;;;;7.95;2.33;;;19.40;99.90;;;;;;4976427;28;20081;-86
2022/08/03 01:28:18;;;;;;;8.88;2.55;;;19.30;99.90;;;;;;4953389;28;20067;-86
2022/08/03 01:30:45;;;;;;;7.63;2.45;;;19.30;99.90;;;;;;4954173;28;20054;-85
2022/08/03 01:33:14;;;;;;;8.48;2.28;;;19.30;99.90;;;;;;4935015;28;20039;-86
2022/08/03 01:35:58;;;;;;;9.63;2.35;;;19.20;99.90;;;;;;4953244;28;20484;-86
2022/08/03 01:38:28;;;;;;;9.35;2.80;;;19.20;99.90;;;;;;4952745;28;20047;-86
2022/08/03 01:40:55;;;;;;;8.52;2.28;;;19.20;99.90;;;;;;4954258;28;20046;-86
2022/08/03 01:43:26;;;;;;;10.75;2.30;;;19.20;99.90;;;;;;4939150;28;20045;-86
2022/08/03 01:45:54;;;;;;;8.85;2.40;;;19.20;99.90;;;;;;4956445;28;20105;-87
2022/08/03 01:48:20;;;;;;;9.00;2.20;;;19.20;99.90;;;;;;4940550;28;20122;-86
2022/08/03 01:50:48;;;;;;;8.75;2.08;;;19.20;99.90;;;;;;4961718;28;20070;-86
2022/08/03 01:53:17;;;;;;;7.30;2.22;;;19.20;99.90;;;;;;4969405;28;20229;-86
2022/08/03 01:55:46;;;;;;;8.73;2.28;;;19.10;99.90;;;;;;4956742;28;20503;-86
2022/08/03 01:58:16;;;;;;;8.70;2.50;;;19.20;99.90;;;;;;4955917;28;20042;-86
2022/08/03 02:00:43;;;;;;;11.35;2.58;;;19.10;99.90;;;;;;4936640;29;20420;-86
2022/08/03 02:03:12;;;;;;;8.80;2.30;;;19.10;99.90;;;;;;4954785;28;20518;-85
2022/08/03 02:05:39;;;;;;;7.30;1.90;;;19.10;99.90;;;;;;4954990;28;20300;-86
2022/08/03 02:08:07;;;;;;;8.68;2.20;;;19.10;99.90;;;;;;4956016;28;20500;-86
2022/08/03 02:10:35;;;;;;;10.70;2.15;;;19.10;99.90;;;;;;4955533;28;20107;-86
2022/08/03 02:13:03;;;;;;;9.05;2.35;;;19.00;99.90;;;;;;4942382;28;20046;-86
2022/08/03 02:15:31;;;;;;;9.40;2.15;;;19.10;99.90;;;;;;4956657;28;20042;-86
2022/08/03 02:17:58;;;;;;;9.27;2.30;;;19.00;99.90;;;;;;4955895;28;20038;-86
2022/08/03 02:20:25;;;;;;;6.15;2.00;;;19.10;99.90;;;;;;4936124;29;20043;-86
2022/08/03 02:22:51;;;;;;;12.07;2.03;;;19.00;99.90;;;;;;4938556;28;20042;-86
2022/08/03 02:25:17;;;;;;;9.23;2.22;;;19.00;99.90;;;;;;4939280;28;20384;-85
2022/08/03 02:27:53;;;;;;;7.55;2.00;;;19.00;99.90;;;;;;4938871;28;20142;-86
2022/08/03 02:30:20;;;;;;;9.63;2.20;;;19.00;99.90;;;;;;4970991;28;20571;-86
2022/08/03 02:32:53;;;;;;;8.90;2.33;;;19.30;99.90;;;;;;4954694;28;20046;-86
2022/08/03 02:35:21;;;;;;;8.77;2.28;;;19.00;99.90;;;;;;4954922;28;20046;-86
2022/08/03 02:37:51;;;;;;;6.88;2.20;;;19.00;99.90;;;;;;4956089;28;20456;-86
2022/08/03 02:40:21;;;;;;;10.15;2.22;;;19.00;99.90;;;;;;4970464;28;20123;-85
2022/08/03 02:42:52;;;;;;;9.70;2.22;;;19.00;99.90;;;;;;4954911;28;20046;-85
2022/08/03 02:45:19;;;;;;;10.20;2.28;;;19.00;99.90;;;;;;4954536;28;20439;-86
2022/08/03 02:47:47;;;;;;;8.35;2.38;;;18.90;99.90;;;;;;4955553;28;20053;-86
2022/08/03 02:50:15;;;;;;;7.57;2.20;;;18.90;99.90;;;;;;4940143;28;20074;-86
2022/08/03 02:52:44;;;;;;;9.20;2.03;;;18.90;99.90;;;;;;4954263;28;20069;-86
2022/08/03 02:55:11;;;;;;;8.90;2.05;;;18.90;99.90;;;;;;4938030;28;20039;-86
2022/08/03 02:57:38;;;;;;;10.13;2.22;;;18.90;99.90;;;;;;4955273;28;20500;-86
2022/08/03 03:00:06;;;;;;;9.90;2.35;;;18.90;99.90;;;;;;4955041;28;20081;-86
2022/08/03 03:02:32;;;;;;;10.60;2.47;;;18.90;99.90;;;;;;4955082;28;20043;-86
2022/08/03 03:05:00;;;;;;;7.45;1.98;;;18.90;99.90;;;;;;4952637;28;20838;-85
2022/08/03 03:07:26;;;;;;;11.05;2.45;;;18.90;99.90;;;;;;4954929;28;20588;-85
2022/08/03 03:09:53;;;;;;;9.52;2.00;;;18.90;99.90;;;;;;4955439;28;20616;-86
2022/08/03 03:12:21;;;;;;;8.50;2.15;;;18.90;99.90;;;;;;4938935;28;20526;-86
2022/08/03 03:14:47;;;;;;;9.25;2.38;;;18.90;99.90;;;;;;4953890;28;20031;-86
2022/08/03 03:17:15;;;;;;;9.85;2.42;;;18.90;99.90;;;;;;4953647;28;20376;-86
2022/08/03 03:19:44;;;;;;;9.15;2.20;;;18.90;99.90;;;;;;4954884;28;20501;-86
2022/08/03 03:22:10;;;;;;;10.88;2.60;;;18.80;99.90;;;;;;4954875;28;20403;-86
2022/08/03 03:24:38;;;;;;;8.68;2.00;;;18.80;99.90;;;;;;4953957;28;20043;-86
2022/08/03 03:27:04;;;;;;;10.02;2.05;;;18.80;99.90;;;;;;4970341;28;20054;-86
2022/08/03 03:29:32;;;;;;;9.00;2.33;;;18.80;99.90;;;;;;4970270;28;20516;-87
2022/08/03 03:31:58;;;;;;;8.43;2.28;;;18.80;99.90;;;;;;4953385;28;20046;-86
2022/08/03 03:34:24;;;;;;;8.55;2.00;;;18.80;99.90;;;;;;4935610;28;20041;-85
2022/08/03 03:36:50;;;;;;;10.88;2.53;;;18.80;99.90;;;;;;4938256;28;20050;-86
2022/08/03 03:39:16;;;;;;;8.95;2.40;;;18.80;99.90;;;;;;4955031;28;20043;-86
2022/08/03 03:41:42;;;;;;;10.32;2.45;;;18.80;99.90;;;;;;4938841;28;20381;-86
2022/08/03 03:44:08;;;;;;;9.82;2.30;;;18.80;99.90;;;;;;4937082;28;20038;-86
2022/08/03 03:46:34;;;;;;;8.70;2.20;;;18.70;99.90;;;;;;4937961;28;20098;-86
2022/08/03 03:49:00;;;;;;;10.25;2.25;;;18.70;99.90;;;;;;4938237;28;20039;-86
2022/08/03 03:51:26;;;;;;;9.90;2.25;;;18.70;99.90;;;;;;4938243;28;20503;-86
2022/08/03 03:53:59;;;;;;;9.48;2.60;;;18.70;99.90;;;;;;4937973;28;20070;-86
2022/08/03 03:56:25;;;;;;;9.88;2.13;;;18.70;99.90;;;;;;4952458;28;20122;-86
2022/08/03 03:58:52;;;;;;;9.50;2.42;;;18.70;99.90;;;;;;4938020;28;20122;-86
2022/08/03 04:01:18;;;;;;;9.90;2.53;;;18.70;99.90;;;;;;4953007;28;20042;-87
2022/08/03 04:03:44;;;;;;;11.00;2.47;;;18.70;99.90;;;;;;4952829;28;20108;-86
2022/08/03 04:11:50;;;;;;;9.43;2.38;;;18.60;99.90;;;;;;4968654;28;20074;-86
2022/08/03 04:14:30;;;;;;;9.10;2.65;;;18.70;99.90;;;;;;4976717;28;20185;-86
2022/08/03 04:17:02;;;;;;;10.05;2.88;;;18.70;99.90;;;;;;4952052;28;20038;-86
2022/08/03 04:19:41;;;;;;;10.50;2.70;;;18.60;99.90;;;;;;4957357;28;20034;-86
2022/08/03 04:22:10;;;;;;;8.02;2.50;;;18.70;99.90;;;;;;4971799;28;20046;-85
2022/08/03 04:24:45;;;;;;;13.77;2.80;;;18.60;99.90;;;;;;4954479;28;20058;-86
2022/08/03 04:27:15;;;;;;;10.07;2.83;;;18.70;99.90;;;;;;4950536;28;20101;-85
2022/08/03 04:29:45;;;;;;;10.73;2.90;;;18.60;99.90;;;;;;4952469;28;20047;-85
2022/08/03 04:32:13;;;;;;;9.88;2.90;;;18.70;99.90;;;;;;4953521;28;20055;-86
2022/08/03 04:34:39;;;;;;;10.13;2.70;;;18.70;99.90;;;;;;4937926;28;20074;-86
2022/08/03 04:37:21;;;;;;;9.73;2.40;;;18.70;99.90;;;;;;4960594;28;20128;-86
2022/08/03 04:39:50;;;;;;;8.68;2.25;;;18.70;99.90;;;;;;4951889;28;20051;-85
2022/08/03 04:42:19;;;;;;;13.30;2.85;;;18.70;99.90;;;;;;4952358;28;21260;-86
2022/08/03 04:44:47;;;;;;;11.77;2.88;;;18.80;99.90;;;;;;4950685;28;20046;-86
2022/08/03 04:47:13;;;;;;;9.73;2.58;;;18.80;99.90;;;;;;4951477;28;20039;-85
2022/08/03 04:49:39;;;;;;;9.10;2.20;;;18.80;99.90;;;;;;4974429;28;20492;-85
2022/08/03 04:52:08;;;;;;;8.15;2.42;;;18.80;99.90;;;;;;4947230;28;20023;-86
2022/08/03 04:54:41;;;;;;;8.30;2.65;;;18.90;99.90;;;;;;4952062;28;20062;-86
2022/08/03 04:57:07;;;;;;;7.70;2.40;;;18.90;99.90;;;;;;4963651;28;20070;-87
2022/08/03 04:59:33;;;;;;;9.82;2.80;;;19.00;99.90;;;;;;4933896;28;20066;-86
2022/08/03 05:01:59;;;;;;;9.10;2.50;;;19.00;99.90;;;;;;4934760;28;20110;-86
2022/08/03 05:04:25;;;;;;;8.13;2.72;;;19.10;99.90;;;;;;4951547;28;20129;-86
2022/08/03 05:06:50;;;;;;;11.25;2.67;;;19.10;99.90;;;;;;4951234;28;20399;-86
2022/08/03 05:09:16;;;;;;;11.82;2.50;;;19.20;99.90;;;;;;4937142;28;20117;-86
2022/08/03 05:11:42;;;;;;;11.70;3.05;;;19.20;99.90;;;;;;4935037;28;20058;-86
2022/08/03 05:14:08;;;;;;;11.02;2.70;;;19.20;99.90;;;;;;4934324;28;20109;-86
2022/08/03 05:16:34;;;;;;;8.88;2.67;;;19.20;99.90;;;;;;4937307;28;20263;-86
2022/08/03 05:19:00;;;;;;;9.52;2.45;;;19.20;99.90;;;;;;4952350;28;20065;-85
2022/08/03 05:21:26;;;;;;;10.43;2.60;;;19.20;99.90;;;;;;4934502;28;20051;-86
2022/08/03 05:23:51;;;;;;;12.07;2.92;;;19.30;99.90;;;;;;4944901;28;20043;-86
2022/08/03 05:26:17;;;;;;;12.93;2.70;;;19.30;99.90;;;;;;4937196;28;20050;-86
2022/08/03 05:28:43;;;;;;;12.00;2.70;;;19.40;99.90;;;;;;4951006;28;20133;-86
2022/08/03 05:31:09;;;;;;;7.50;2.20;;;19.50;99.90;;;;;;4929492;28;20514;-85
2022/08/03 05:33:35;;;;;;;10.15;2.35;;;19.50;99.90;;;;;;4925289;28;20164;-87
2022/08/03 05:36:01;;;;;;;9.38;2.72;;;19.60;99.90;;;;;;4936224;28;20038;-86
2022/08/03 05:38:27;;;;;;;9.13;2.75;;;19.70;99.90;;;;;;4937045;28;20046;-86
2022/08/03 05:40:53;;;;;;;10.27;2.42;;;19.70;99.90;;;;;;4936921;28;20054;-86
2022/08/03 05:43:19;;;;;;;10.15;2.50;;;19.80;99.90;;;;;;4919438;28;20043;-86
2022/08/03 05:45:45;;;;;;;9.68;2.47;;;19.80;99.90;;;;;;4952851;28;20050;-86
2022/08/03 05:48:11;;;;;;;11.55;2.88;;;19.90;99.90;;;;;;4921093;28;20117;-85
2022/08/03 05:50:36;;;;;;;10.43;3.05;;;19.90;99.90;;;;;;4961068;28;20479;-85
2022/08/03 05:53:03;;;;;;;11.45;2.67;;;19.90;99.90;;;;;;4963146;28;20038;-86
2022/08/03 05:55:29;;;;;;;12.02;2.90;;;19.90;99.90;;;;;;4936724;28;20089;-86
2022/08/03 05:57:55;;;;;;;12.00;2.70;;;20.00;99.90;;;;;;4921156;28;20427;-86
2022/08/03 06:00:21;;;;;;;9.70;2.50;;;20.00;99.90;;;;;;4936926;28;20046;-87
2022/08/03 06:02:47;;;;;;;9.45;2.67;;;20.10;99.90;;;;;;4936232;28;20577;-86
2022/08/03 06:05:13;;;;;;;10.27;2.50;;;20.10;99.90;;;;;;4947741;28;20035;-86
2022/08/03 06:07:39;;;;;;;10.63;2.95;;;20.10;99.90;;;;;;4920978;28;20042;-86
2022/08/03 06:10:05;;;;;;;11.27;2.90;;;20.20;99.90;;;;;;4934435;28;20407;-86
2022/08/03 06:12:34;;;;;;;12.60;2.92;;;20.30;99.90;;;;;;4966735;28;20130;-86
2022/08/03 06:15:02;;;;;;;10.23;2.60;;;20.40;99.90;;;;;;4933193;28;20046;-86
2022/08/03 06:17:28;;;;;;;12.77;2.78;;;20.40;99.90;;;;;;4949529;28;20038;-85
2022/08/03 06:19:54;;;;;;;10.38;2.60;;;20.50;99.90;;;;;;4934535;28;20095;-86
2022/08/03 06:22:20;;;;;;;12.80;3.10;;;20.50;99.90;;;;;;4934571;28;20050;-86
2022/08/03 06:24:46;;;;;;;10.45;2.60;;;20.50;99.90;;;;;;4950197;28;20065;-86
2022/08/03 06:27:12;;;;;;;9.25;2.70;;;20.50;99.90;;;;;;4939661;28;20511;-86
2022/08/03 06:29:38;;;;;;;11.75;2.80;;;20.60;99.90;;;;;;4953688;28;20073;-86
2022/08/03 06:32:04;;;;;;;12.85;3.10;;;20.70;99.90;;;;;;4938343;28;20043;-84
2022/08/03 06:34:29;;;;;;;13.30;2.83;;;20.70;99.90;;;;;;4938979;28;20042;-86
2022/08/03 06:36:56;;;;;;;9.55;2.50;;;20.80;99.90;;;;;;4938584;28;20046;-85
2022/08/03 06:39:21;;;;;;;11.75;2.75;;;20.90;99.90;;;;;;4955521;28;20042;-85
2022/08/03 06:41:47;;;;;;;10.07;2.70;;;21.00;99.90;;;;;;4955624;28;20043;-85
2022/08/03 06:44:13;;;;;;;9.80;2.97;;;21.00;99.90;;;;;;4923862;28;20050;-86
2022/08/03 06:46:39;;;;;;;11.77;2.80;;;21.10;99.90;;;;;;4936355;28;20031;-85
2022/08/03 06:49:06;;;;;;;11.75;3.08;;;21.10;99.90;;;;;;4938815;28;20404;-86
2022/08/03 06:51:32;;;;;;;10.13;2.97;;;21.10;99.90;;;;;;4953077;28;20050;-86
2022/08/03 06:53:58;;;;;;;10.10;2.78;;;21.20;99.90;;;;;;4953273;28;20050;-86
2022/08/03 06:56:24;;;;;;;12.80;3.28;;;21.30;99.90;;;;;;4938433;28;20519;-85
2022/08/03 06:58:50;;;;;;;14.77;2.80;;;21.40;99.90;;;;;;4938375;28;20045;-86
2022/08/03 07:01:16;;;;;;;12.07;2.70;;;21.40;99.90;;;;;;4938822;28;20074;-86
2022/08/03 07:03:42;;;;;;;11.75;2.88;;;21.50;99.90;;;;;;4937829;28;20057;-85
2022/08/03 07:06:07;;;;;;;11.05;2.90;;;21.60;99.90;;;;;;4970453;28;20049;-85
2022/08/03 07:08:33;;;;;;;12.88;2.80;;;21.60;99.90;;;;;;4936589;28;20075;-85
2022/08/03 07:10:59;;;;;;;13.95;3.30;;;21.70;99.90;;;;;;4937547;28;20537;-86
2022/08/03 07:13:25;;;;;;;11.45;2.97;;;21.70;99.90;;;;;;4937534;28;20054;-85
2022/08/03 07:15:51;;;;;;;12.02;2.65;;;21.80;99.90;;;;;;4938898;28;20039;-86
2022/08/03 07:18:17;;;;;;;14.93;3.53;;;21.90;99.90;;;;;;4937756;28;20553;-84
2022/08/03 07:20:42;;;;;;;11.25;2.85;;;21.90;99.90;;;;;;4934619;28;20132;-86
2022/08/03 07:23:08;;;;;;;15.95;3.53;;;22.00;99.90;;;;;;4933389;28;20035;-86
2022/08/03 07:25:34;;;;;;;12.13;2.78;;;22.10;99.90;;;;;;4955017;28;20050;-85
2022/08/03 07:28:00;;;;;;;14.00;2.63;;;22.20;99.90;;;;;;4954204;28;20435;-85
2022/08/03 07:30:29;;;;;;;11.80;3.30;;;22.30;99.90;;;;;;4954757;28;20051;-85
2022/08/03 07:32:55;;;;;;;11.88;2.80;;;22.40;99.90;;;;;;4922803;28;20555;-86
2022/08/03 07:35:21;;;;;;;13.20;2.97;;;22.40;99.90;;;;;;4938814;28;20043;-85
2022/08/03 07:37:47;;;;;;;9.52;2.53;;;22.50;99.90;;;;;;4967305;28;20042;-85
2022/08/03 07:40:13;;;;;;;11.32;3.00;;;22.60;99.90;;;;;;4952433;28;20451;-86
2022/08/03 07:42:38;;;;;;;11.00;2.80;;;22.60;99.90;;;;;;4922486;28;20039;-86
2022/08/03 07:45:05;;;;;;;10.07;2.88;;;22.70;99.90;;;;;;4952601;28;20121;-85
2022/08/03 07:47:30;;;;;;;11.60;3.35;;;22.70;99.90;;;;;;4938903;28;20089;-85
2022/08/03 07:49:57;;;;;;;13.27;2.90;;;22.80;99.90;;;;;;4933968;28;20463;-85
2022/08/03 07:55:07;;;;;;;14.30;3.20;;;22.90;99.90;;;;;;4955877;28;20042;-86
2022/08/03 07:57:34;;;;;;;12.43;3.13;;;23.00;99.90;;;;;;4961442;28;20374;-86
2022/08/03 07:59:59;;;;;;;11.10;3.08;;;23.10;99.90;;;;;;4962639;28;20035;-86
2022/08/03 08:02:25;;;;;;;13.73;3.40;;;23.10;99.90;;;;;;4979898;28;20046;-86
2022/08/03 08:04:51;;;;;;;12.57;3.28;;;23.10;99.90;;;;;;4934250;28;20045;-87
2022/08/03 08:07:17;;;;;;;11.88;3.00;;;23.10;99.90;;;;;;4928957;29;20154;-86
2022/08/03 08:09:42;;;;;;;11.95;3.28;;;23.20;99.90;;;;;;4947524;28;20492;-87
2022/08/03 08:12:10;;;;;;;10.93;2.80;;;23.30;99.90;;;;;;4938219;28;20101;-86
2022/08/03 08:14:35;;;;;;;14.65;3.50;;;23.30;99.90;;;;;;4953352;28;20122;-87
2022/08/03 08:17:01;;;;;;;11.60;2.85;;;23.40;99.90;;;;;;4953324;28;20109;-86
2022/08/03 08:19:27;;;;;;;13.50;2.90;;;23.50;99.90;;;;;;4967283;28;20504;-85
2022/08/03 08:21:53;;;;;;;12.98;3.30;;;23.60;99.90;;;;;;4952475;28;20074;-88
2022/08/03 08:24:20;;;;;;;12.20;2.90;;;23.70;99.90;;;;;;4937215;28;20035;-86
2022/08/03 08:26:46;;;;;;;12.15;3.03;;;23.70;99.90;;;;;;4953780;28;20039;-87
2022/08/03 08:29:12;;;;;;;13.52;3.40;;;23.70;99.90;;;;;;4936426;28;20065;-86
2022/08/03 08:31:37;;;;;;;11.27;3.22;;;23.70;99.90;;;;;;4935164;28;20385;-86
2022/08/03 08:34:04;;;;;;;11.13;2.90;;;23.90;99.90;;;;;;4953190;28;20075;-86
2022/08/03 08:36:34;;;;;;;13.75;2.90;;;24.00;99.90;;;;;;4935422;28;20536;-87
2022/08/03 08:39:00;;;;;;;14.02;3.20;;;24.00;99.90;;;;;;4952804;28;20038;-86
2022/08/03 08:41:27;;;;;;;13.93;3.17;;;24.10;99.90;;;;;;4935677;28;20057;-87
2022/08/03 08:43:53;;;;;;;10.45;2.95;;;24.10;99.90;;;;;;4969793;28;20126;-86
2022/08/03 08:46:19;;;;;;;9.68;2.75;;;24.10;99.90;;;;;;4968566;28;20535;-86
2022/08/03 08:48:45;;;;;;;10.13;2.92;;;;;;;;;;4952882;28;20046;-86
2022/08/03 08:51:12;;;;;;;12.73;3.33;;;24.20;99.90;;;;;;4953949;28;20535;-86
2022/08/03 08:53:42;;;;;;;10.95;2.70;;;24.30;99.90;;;;;;4964306;28;20026;-86
2022/08/03 08:56:14;;;;;;;12.30;3.20;;;24.40;99.90;;;;;;4953971;28;20432;-87
2022/08/03 08:58:47;;;;;;;10.77;3.22;;;24.30;99.90;;;;;;4960688;28;20046;-87
2022/08/03 09:01:12;;;;;;;11.00;3.05;;;24.10;99.90;;;;;;4953109;28;20043;-86
2022/08/03 09:03:38;;;;;;;10.15;2.80;;;24.30;99.90;;;;;;4950401;28;20101;-86
2022/08/03 09:06:04;;;;;;;11.80;3.28;;;24.40;99.90;;;;;;4951634;28;20138;-86
2022/08/03 09:08:31;;;;;;;11.05;3.40;;;26.50;99.90;;;;;;4935350;28;20035;-86
2022/08/03 09:10:57;;;;;;;12.32;3.42;;;24.60;99.90;;;;;;4958971;28;20201;-87
2022/08/03 09:13:23;;;;;;;10.95;3.10;;;24.50;99.90;;;;;;4959808;28;20176;-85
2022/08/03 09:16:09;;;;;;;9.55;2.78;;;24.60;99.90;;;;;;4947022;28;20039;-86
2022/08/03 09:18:35;;;;;;;9.82;3.05;;;24.40;99.90;;;;;;4951794;28;20046;-86
2022/08/03 09:21:25;;;;;;;12.75;3.15;;;24.80;99.90;;;;;;4934099;28;20043;-86
2022/08/03 09:23:56;;;;;;;15.27;2.83;;;24.50;99.90;;;;;;4969391;28;20126;-86
2022/08/03 09:26:23;;;;;;;12.23;3.45;;;24.60;99.90;;;;;;4951121;28;20051;-87
2022/08/03 09:28:57;;;;;;;10.52;3.03;;;24.60;99.90;;;;;;4950979;28;20062;-86
2022/08/03 09:31:34;;;;;;;13.10;3.08;;;24.60;99.90;;;;;;4969051;28;20416;-86
2022/08/03 09:34:04;;;;;;;13.63;3.47;;;24.80;99.90;;;;;;4951452;28;20381;-86
2022/08/03 09:36:47;;;;;;;11.00;3.03;;;24.80;99.90;;;;;;4966651;28;20507;-87
2022/08/03 09:39:17;;;;;;;11.52;2.90;;;24.80;99.90;;;;;;4930596;28;20704;-86
2022/08/03 09:42:02;;;;;;;11.45;2.88;;;24.80;99.90;;;;;;4952548;28;20042;-87
2022/08/03 09:44:42;;;;;;;9.57;2.72;;;24.90;99.90;;;;;;4945338;28;20050;-87
2022/08/03 09:47:13;;;;;;;10.23;2.75;;;25.10;99.90;;;;;;4946881;28;20511;-86
2022/08/03 09:49:40;;;;;;;13.73;3.05;;;25.20;99.90;;;;;;4924586;28;20104;-86
2022/08/03 09:52:18;;;;;;;10.95;3.15;;;25.30;99.90;;;;;;4940246;28;20190;-86
2022/08/03 09:54:51;;;;;;;12.43;3.08;;;25.40;99.90;;;;;;4947799;28;20083;-86
2022/08/03 09:57:22;;;;;;;11.93;3.17;;;25.50;99.90;;;;;;4968561;28;20101;-86
2022/08/03 09:59:48;;;;;;;9.60;3.20;;;25.50;99.90;;;;;;4980697;28;20070;-86
2022/08/03 10:02:25;;;;;;;11.48;3.55;;;25.50;99.90;;;;;;4955028;28;20042;-86
2022/08/03 10:04:52;;;;;;;16.10;3.20;;;25.50;99.90;;;;;;4954164;28;20070;-86
2022/08/03 10:07:24;;;;;;;10.23;3.05;;;25.60;99.90;;;;;;4956339;28;20042;-87
2022/08/03 10:10:00;;;;;;;10.32;3.40;;;25.60;99.90;;;;;;4971915;28;20046;-86
2022/08/03 10:12:27;;;;;;;12.57;3.30;;;25.80;99.90;;;;;;4967561;28;20043;-86
2022/08/03 10:14:54;;;;;;;11.75;3.63;;;25.90;99.90;;;;;;4954277;28;20035;-85
2022/08/03 10:17:21;;;;;;;12.68;3.35;;;26.00;99.90;;;;;;4937766;28;20424;-85
2022/08/03 10:19:47;;;;;;;11.70;3.35;;;26.10;99.90;;;;;;4940346;28;20039;-86
2022/08/03 10:22:17;;;;;;;11.45;3.70;;;26.10;99.90;;;;;;4954075;28;20043;-86
2022/08/03 10:24:58;;;;;;;12.68;3.22;;;26.30;99.90;;;;;;4971316;28;20046;-86
2022/08/03 10:27:25;;;;;;;13.35;3.22;;;26.40;99.90;;;;;;4971745;28;20051;-86
2022/08/03 10:29:54;;;;;;;11.45;2.92;;;26.40;99.90;;;;;;4956208;28;20042;-86
2022/08/03 10:32:39;;;;;;;11.90;3.40;;;26.40;99.90;;;;;;4955288;28;20034;-86
2022/08/03 10:35:07;;;;;;;12.63;2.92;;;26.50;99.90;;;;;;4955321;28;20038;-85
2022/08/03 10:37:41;;;;;;;13.38;3.03;;;26.50;99.90;;;;;;4972439;28;20039;-86
2022/08/03 10:40:08;;;;;;;11.32;3.45;;;26.50;99.90;;;;;;4972334;28;20047;-86
2022/08/03 10:42:36;;;;;;;10.50;2.55;;;26.60;99.90;;;;;;4935231;28;20051;-86
2022/08/03 10:45:08;;;;;;;11.25;2.78;;;26.60;99.90;;;;;;4951559;28;20122;-86
2022/08/03 10:47:35;;;;;;;16.38;3.20;;;26.50;99.90;;;;;;4955302;28;20050;-86
2022/08/03 10:50:01;;;;;;;13.60;3.10;;;26.40;99.90;;;;;;4937244;28;20058;-86
2022/08/03 10:52:27;;;;;;;16.42;3.47;;;26.40;99.90;;;;;;4952938;28;20429;-86
2022/08/03 10:57:52;;;;;;;13.82;3.00;;;26.70;99.90;;;;;;4970472;28;20058;-86
2022/08/03 11:00:29;;;;;;;11.15;2.90;;;26.90;99.90;;;;;;4955200;28;20500;-86
2022/08/03 11:03:02;;;;;;;11.63;2.90;;;27.00;99.90;;;;;;4953725;28;20050;-86
2022/08/03 11:05:30;;;;;;;11.63;2.80;;;27.00;99.90;;;;;;4947833;28;20049;-87
2022/08/03 11:08:23;;;;;;;12.25;2.88;;;27.10;99.90;;;;;;4953240;28;20913;-87
2022/08/03 11:10:54;;;;;;;13.70;3.00;;;27.30;99.90;;;;;;4952113;28;20162;-87
2022/08/03 11:13:23;;;;;;;12.00;2.90;;;27.40;99.90;;;;;;4951682;28;21885;-86
2022/08/03 11:15:53;;;;;;;11.43;2.55;;;27.50;99.90;;;;;;4968246;28;20051;-87
2022/08/03 11:18:19;;;;;;;11.82;3.10;;;27.60;99.90;;;;;;4954644;28;20043;-87
2022/08/03 11:20:55;;;;;;;14.23;3.00;;;27.60;99.90;;;;;;4937996;28;20042;-87
2022/08/03 11:23:41;;;;;;;11.73;3.10;;;27.60;99.90;;;;;;4939116;28;20416;-86
2022/08/03 11:26:09;;;;;;;14.25;3.35;;;27.70;99.90;;;;;;4950121;28;20035;-86
2022/08/03 11:28:37;;;;;;;11.75;2.75;;;27.80;99.90;;;;;;4954443;28;20063;-86
2022/08/03 11:31:21;;;;;;;14.00;3.35;;;27.90;99.90;;;;;;4954718;28;20055;-86
2022/08/03 11:34:06;;;;;;;15.20;3.35;;;27.80;99.90;;;;;;4954009;28;20217;-86
2022/08/03 11:37:09;;;;;;;12.20;3.30;;;28.00;99.90;;;;;;4953366;28;20035;-87
2022/08/03 11:39:44;;;;;;;11.43;3.28;;;28.00;99.90;;;;;;4952864;28;20066;-86
2022/08/03 11:42:22;;;;;;;12.93;3.00;;;28.00;99.90;;;;;;4946502;29;20100;-86
2022/08/03 11:44:59;;;;;;;14.20;3.33;;;28.00;99.90;;;;;;4958093;28;20122;-88
2022/08/03 11:47:27;;;;;;;13.00;3.22;;;28.00;99.90;;;;;;4952755;28;20061;-86
2022/08/03 11:49:59;;;;;;;14.60;3.65;;;28.00;99.90;;;;;;4969690;28;20074;-87
2022/08/03 11:52:26;;;;;;;18.75;3.75;;;28.10;99.90;;;;;;4953218;28;20552;-86
2022/08/03 11:54:52;;;;;;;14.00;3.10;;;28.20;99.90;;;;;;4967899;28;20061;-87
2022/08/03 11:57:31;;;;;;;13.90;3.67;;;28.20;99.90;;;;;;4951312;28;20043;-87
2022/08/03 11:59:57;;;;;;;14.88;2.95;;;28.30;99.90;;;;;;4970247;28;20038;-85
2022/08/03 12:02:23;;;;;;;16.35;3.35;;;28.30;99.90;;;;;;4954376;28;20047;-87
2022/08/03 12:05:01;;;;;;;13.70;3.42;;;28.40;99.90;;;;;;4949599;28;20445;-87
2022/08/03 12:07:29;;;;;;;11.35;3.20;;;28.40;99.90;;;;;;4968360;28;20251;-87
2022/08/03 12:10:14;;;;;;;14.00;3.13;;;28.50;99.90;;;;;;4952922;28;20043;-87
2022/08/03 12:12:41;;;;;;;18.38;3.85;;;28.40;99.90;;;;;;4938231;28;20039;-87
2022/08/03 12:15:07;;;;;;;16.02;3.58;;;28.70;99.90;;;;;;4952660;28;20050;-87
2022/08/03 12:17:38;;;;;;;16.02;3.58;;;28.40;99.90;;;;;;4952431;28;20039;-86
2022/08/03 12:20:06;;;;;;;13.38;3.20;;;28.50;99.90;;;;;;4968186;28;20073;-86
2022/08/03 12:22:37;;;;;;;12.80;3.38;;;28.50;99.90;;;;;;4943518;28;20045;-86
2022/08/03 12:25:05;;;;;;;16.25;3.70;;;28.50;99.90;;;;;;4951390;28;20269;-87
2022/08/03 12:27:31;;;;;;;11.65;3.22;;;28.50;99.90;;;;;;4949934;28;20046;-85
2022/08/03 12:29:58;;;;;;;17.40;3.80;;;28.60;99.90;;;;;;4950567;28;20677;-86
2022/08/03 12:32:25;;;;;;;15.82;3.85;;;28.60;99.90;;;;;;4962831;28;20101;-87
2022/08/03 12:34:50;;;;;;;13.55;3.05;;;28.60;99.90;;;;;;4952047;28;20070;-86
2022/08/03 12:37:21;;;;;;;14.70;3.30;;;28.70;99.90;;;;;;4948232;28;20108;-86
2022/08/03 12:39:52;;;;;;;14.60;3.55;;;28.70;99.90;;;;;;4941600;28;20055;-85
2022/08/03 12:42:18;;;;;;;14.88;3.17;;;28.80;99.90;;;;;;4975902;28;20183;-86
2022/08/03 12:44:44;;;;;;;15.45;3.50;;;28.80;99.90;;;;;;4937563;28;20041;-87
2022/08/03 12:47:11;;;;;;;14.18;3.47;;;28.90;99.90;;;;;;4945932;28;20038;-86
2022/08/03 12:49:48;;;;;;;17.15;3.78;;;28.90;99.90;;;;;;4935116;28;20130;-87
2022/08/03 12:52:15;;;;;;;11.65;3.28;;;29.00;99.90;;;;;;4967340;28;20039;-87
2022/08/03 12:54:41;;;;;;;13.13;3.78;;;29.00;99.90;;;;;;4953009;28;20049;-87
2022/08/03 12:57:12;;;;;;;12.80;3.50;;;29.00;99.90;;;;;;4936957;28;20162;-86
2022/08/03 12:59:41;;;;;;;11.93;2.85;;;29.10;99.90;;;;;;4937285;28;20393;-87
2022/08/03 13:02:21;;;;;;;14.38;3.58;;;29.10;99.90;;;;;;4967471;28;20077;-87